createdAt,value
2022-11-12T00:00:21.720Z,102039.53
2022-11-12T00:03:08.462Z,102034.31
2022-11-12T00:05:54.217Z,102038.72
2022-11-12T00:08:39.887Z,102030.72
2022-11-12T00:11:25.115Z,102035.09
2022-11-12T00:14:10.554Z,102030.72
2022-11-12T00:16:55.806Z,102032.06
2022-11-12T00:19:41.187Z,102018.28
2022-11-12T00:22:26.604Z,102029.06
2022-11-12T00:25:11.946Z,102019.13
2022-11-12T00:28:08.949Z,102016.94
2022-11-12T00:30:54.280Z,102022.97
2022-11-12T00:33:41.694Z,102018.59
2022-11-12T00:36:27.018Z,102012.78
2022-11-12T00:39:12.615Z,102011.41
2022-11-12T00:41:58.044Z,102016.34
2022-11-12T00:44:43.397Z,102024.94
2022-11-12T00:47:28.954Z,102024.06
2022-11-12T00:50:16.022Z,102015.50
2022-11-12T00:53:01.271Z,102022.38
2022-11-12T00:55:46.855Z,102026.28
2022-11-12T00:58:34.700Z,102000.38
2022-11-12T01:01:20.514Z,102012.75
2022-11-12T01:04:06.515Z,102014.94
2022-11-12T01:06:51.750Z,101981.81
2022-11-12T01:09:37.376Z,102014.66
2022-11-12T01:12:22.862Z,102013.31
2022-11-12T01:15:08.983Z,102025.44
2022-11-12T01:17:54.678Z,102022.13
2022-11-12T01:20:40.222Z,102027.09
2022-11-12T01:23:25.665Z,102029.31
2022-11-12T01:26:13.953Z,102029.91
2022-11-12T01:28:59.254Z,102015.03
2022-11-12T01:31:44.712Z,102027.47
2022-11-12T01:34:30.575Z,102016.44
2022-11-12T01:37:16.091Z,102018.91
2022-11-12T01:40:01.653Z,102009.53
2022-11-12T01:42:52.683Z,102017.53
2022-11-12T01:45:42.331Z,102021.97
2022-11-12T01:48:33.038Z,102006.25
2022-11-12T01:51:21.514Z,102011.78
2022-11-12T01:54:10.897Z,102012.31
2022-11-12T01:56:58.374Z,102008.44
2022-11-12T01:59:47.654Z,102007.66
2022-11-12T02:02:36.200Z,101992.22
2022-11-12T02:05:24.000Z,101995.53
2022-11-12T02:08:11.265Z,102006.53
2022-11-12T02:10:56.771Z,101986.44
2022-11-12T02:13:57.974Z,102001.59
2022-11-12T02:16:46.015Z,102000.78
2022-11-12T02:19:31.258Z,102002.72
2022-11-12T02:22:16.669Z,102017.31
2022-11-12T02:25:01.942Z,102009.34
2022-11-12T02:27:51.812Z,102022.00
2022-11-12T02:30:46.625Z,102010.19
2022-11-12T02:33:31.979Z,102000.81
2022-11-12T02:36:17.417Z,101999.69
2022-11-12T02:39:02.825Z,102004.09
2022-11-12T02:41:48.166Z,102008.78
2022-11-12T02:44:33.793Z,102010.72
2022-11-12T02:47:19.529Z,102008.78
2022-11-12T02:50:05.430Z,102013.78
2022-11-12T02:52:50.739Z,102020.06
2022-11-12T02:55:36.191Z,102012.63
2022-11-12T02:58:22.735Z,102026.16
2022-11-12T03:01:08.489Z,102018.38
2022-11-12T03:03:54.011Z,102012.31
2022-11-12T03:25:42.310Z,102036.69
2022-11-12T03:28:27.909Z,102037.50
2022-11-12T03:31:13.578Z,102043.81
2022-11-12T03:33:58.923Z,102041.31
2022-11-12T03:36:44.309Z,102035.53
2022-11-12T03:39:29.736Z,102033.31
2022-11-12T03:42:14.951Z,102037.16
2022-11-12T03:45:00.200Z,102031.38
2022-11-12T03:47:50.478Z,102038.28
2022-11-12T03:50:35.755Z,102025.59
2022-11-12T03:53:21.092Z,102034.41
2022-11-12T03:56:06.886Z,102037.19
2022-11-12T03:58:52.268Z,102028.34
2022-11-12T04:01:38.001Z,102038.28
2022-11-12T04:04:23.611Z,102049.28
2022-11-12T04:07:27.565Z,102054.25
2022-11-12T04:10:13.130Z,102064.44
2022-11-12T04:13:17.211Z,102054.22
2022-11-12T04:16:49.329Z,102047.06
2022-11-12T04:19:53.474Z,102051.22
2022-11-12T04:22:38.932Z,102054.00
2022-11-12T04:25:44.469Z,102044.63
2022-11-12T04:28:29.923Z,102054.56
2022-11-12T04:31:15.472Z,102055.09
2022-11-12T04:34:20.945Z,102067.19
2022-11-12T04:37:07.242Z,102062.75
2022-11-12T04:39:53.473Z,102071.56
2022-11-12T04:42:57.101Z,102059.16
2022-11-12T04:45:45.197Z,102072.91
2022-11-12T04:48:31.026Z,102070.16
2022-11-12T04:51:34.866Z,102074.25
2022-11-12T04:54:20.295Z,102081.13
2022-11-12T04:57:05.918Z,102083.59
2022-11-12T04:59:51.238Z,102087.75
2022-11-12T05:02:36.549Z,102088.25
2022-11-12T05:05:22.167Z,102068.97
2022-11-12T05:08:07.628Z,102077.28
2022-11-12T05:10:53.056Z,102083.09
2022-11-12T05:13:38.316Z,102086.66
2022-11-12T05:16:23.626Z,102092.16
2022-11-12T05:19:09.297Z,102085.53
2022-11-12T05:22:06.363Z,102083.28
2022-11-12T05:24:51.831Z,102094.31
2022-11-12T05:27:37.200Z,102108.94
2022-11-12T05:30:22.495Z,102109.97
2022-11-12T05:33:07.840Z,102112.97
2022-11-12T05:35:56.416Z,102116.19
2022-11-12T05:38:42.294Z,102121.13
2022-11-12T05:41:32.897Z,102115.31
2022-11-12T05:44:30.902Z,102116.19
2022-11-12T05:47:16.851Z,102136.97
2022-11-12T05:50:02.494Z,102135.06
2022-11-12T05:52:47.807Z,102131.22
2022-11-12T05:55:37.010Z,102137.84
2022-11-12T05:58:22.500Z,102148.34
2022-11-12T06:01:08.278Z,102154.66
2022-11-12T06:03:53.521Z,102151.09
2022-11-12T06:06:40.369Z,102157.41
2022-11-12T06:09:25.657Z,102148.00
2022-11-12T06:12:10.959Z,102152.97
2022-11-12T06:14:56.537Z,102156.78
2022-11-12T06:17:42.583Z,102164.22
2022-11-12T06:20:27.845Z,102163.72
2022-11-12T06:23:13.184Z,102169.22
2022-11-12T06:25:58.667Z,102158.19
2022-11-12T06:28:44.511Z,102153.69
2022-11-12T06:31:29.835Z,102163.59
2022-11-12T06:34:15.328Z,102146.44
2022-11-12T06:37:00.711Z,102156.38
2022-11-12T06:39:46.087Z,102167.41
2022-11-12T06:42:31.621Z,102168.94
2022-11-12T06:45:17.012Z,102166.44
2022-11-12T06:48:02.544Z,102180.50
2022-11-12T06:50:47.837Z,102167.63
2022-11-12T06:53:33.419Z,102167.28
2022-11-12T06:56:18.663Z,102185.72
2022-11-12T06:59:04.107Z,102175.78
2022-11-12T07:01:49.415Z,102183.84
2022-11-12T07:04:35.083Z,102183.16
2022-11-12T07:07:20.492Z,102183.50
2022-11-12T07:10:06.276Z,102178.81
2022-11-12T07:12:54.169Z,102183.28
2022-11-12T07:15:39.510Z,102189.34
2022-11-12T07:18:25.532Z,102184.13
2022-11-12T07:21:13.893Z,102180.53
2022-11-12T07:23:59.307Z,102184.66
2022-11-12T07:26:47.415Z,102193.50
2022-11-12T07:29:47.120Z,102188.50
2022-11-12T07:32:36.190Z,102190.97
2022-11-12T07:35:24.022Z,102194.81
2022-11-12T07:38:09.406Z,102189.03
2022-11-12T07:41:02.690Z,102198.69
2022-11-12T07:43:49.419Z,102191.81
2022-11-12T07:46:35.097Z,102193.16
2022-11-12T07:49:20.363Z,102186.78
2022-11-12T07:52:05.801Z,102181.31
2022-11-12T07:54:51.431Z,102186.53
2022-11-12T07:57:36.670Z,102189.81
2022-11-12T08:00:22.053Z,102198.34
2022-11-12T08:03:07.374Z,102194.44
2022-11-12T08:05:53.022Z,102193.25
2022-11-12T08:08:38.061Z,102198.50
2022-11-12T08:11:23.928Z,102208.91
2022-11-12T08:14:09.635Z,102214.13
2022-11-12T08:16:54.979Z,102206.91
2022-11-12T08:19:40.457Z,102219.56
2022-11-12T08:22:25.950Z,102210.91
2022-11-12T08:25:11.131Z,102213.91
2022-11-12T08:27:58.388Z,102208.41
2022-11-12T08:30:43.879Z,102203.38
2022-11-12T08:33:30.399Z,102225.84
2022-11-12T08:36:17.671Z,102225.41
2022-11-12T08:39:02.737Z,102220.75
2022-11-12T08:41:48.112Z,102230.31
2022-11-12T08:44:33.462Z,102232.88
2022-11-12T08:47:18.957Z,102230.94
2022-11-12T08:50:04.376Z,102239.06
2022-11-12T08:52:49.993Z,102234.03
2022-11-12T08:55:36.481Z,102234.94
2022-11-12T08:58:22.156Z,102234.59
2022-11-12T09:01:08.296Z,102227.81
2022-11-12T09:03:53.595Z,102220.94
2022-11-12T09:06:39.024Z,102220.81
2022-11-12T09:09:24.477Z,102224.72
2022-11-12T09:12:19.110Z,102229.44
2022-11-12T09:15:36.271Z,102219.03
2022-11-12T09:18:15.056Z,102208.56
2022-11-12T09:21:06.618Z,102209.16
2022-11-12T09:23:52.123Z,102217.56
2022-11-12T09:26:37.540Z,102218.06
2022-11-12T09:29:23.013Z,102219.75
2022-11-12T09:32:08.736Z,102215.22
2022-11-12T09:34:54.126Z,102209.13
2022-11-12T09:37:39.749Z,102206.59
2022-11-12T09:40:52.785Z,102204.81
2022-11-12T09:44:01.837Z,102202.75
2022-11-12T09:47:01.637Z,102202.94
2022-11-12T09:50:12.358Z,102203.91
2022-11-12T09:53:46.976Z,102208.03
2022-11-12T09:56:32.430Z,102205.72
2022-11-12T09:59:18.618Z,102220.38
2022-11-12T10:02:38.229Z,102221.66
2022-11-12T10:05:31.984Z,102223.13
2022-11-12T10:08:24.101Z,102204.66
2022-11-12T10:11:18.733Z,102204.78
2022-11-12T10:14:25.160Z,102204.63
2022-11-12T10:17:23.450Z,102215.09
2022-11-12T10:20:38.671Z,102215.72
2022-11-12T10:23:41.977Z,102219.97
2022-11-12T10:26:28.673Z,102222.81
2022-11-12T10:29:25.125Z,102221.78
2022-11-12T10:32:15.402Z,102224.25
2022-11-12T10:35:00.769Z,102220.16
2022-11-12T10:37:52.176Z,102220.16
2022-11-12T10:40:40.160Z,102216.66
2022-11-12T10:43:25.745Z,102218.81
2022-11-12T10:46:22.765Z,102228.88
2022-11-12T10:49:24.270Z,102228.19
2022-11-12T10:52:24.851Z,102228.25
2022-11-12T10:55:19.649Z,102209.06
2022-11-12T10:58:10.998Z,102216.25
2022-11-12T11:01:14.434Z,102213.91
2022-11-12T11:04:00.592Z,102207.38
2022-11-12T11:06:46.323Z,102214.06
2022-11-12T11:09:32.810Z,102224.09
2022-11-12T11:12:34.943Z,102214.38
2022-11-12T11:15:23.324Z,102226.59
2022-11-12T11:18:12.913Z,102222.63
2022-11-12T11:21:41.931Z,102222.56
2022-11-12T11:24:39.837Z,102218.00
2022-11-12T11:27:40.425Z,102229.81
2022-11-12T11:30:26.101Z,102231.34
2022-11-12T11:33:23.176Z,102232.69
2022-11-12T11:36:33.190Z,102219.09
2022-11-12T11:39:30.946Z,102223.81
2022-11-12T11:42:16.125Z,102227.25
2022-11-12T11:45:22.800Z,102220.78
2022-11-12T11:48:35.299Z,102230.22
2022-11-12T11:51:29.721Z,102229.94
2022-11-12T11:54:53.636Z,102236.22
2022-11-12T11:58:12.774Z,102220.47
2022-11-12T12:01:47.478Z,102224.69
2022-11-12T12:04:32.505Z,102221.81
2022-11-12T12:07:23.719Z,102220.38
2022-11-12T12:10:12.002Z,102231.47
2022-11-12T12:13:17.958Z,102234.78
2022-11-12T12:16:29.969Z,102245.25
2022-11-12T12:19:43.814Z,102248.91
2022-11-12T12:22:45.211Z,102241.34
2022-11-12T12:25:36.942Z,102239.50
2022-11-12T12:28:37.627Z,102240.38
2022-11-12T12:31:29.679Z,102248.69
2022-11-12T12:34:26.701Z,102247.72
2022-11-12T12:37:30.155Z,102251.09
2022-11-12T12:40:37.438Z,102246.88
2022-11-12T12:43:27.576Z,102252.94
2022-11-12T12:46:16.633Z,102239.56
2022-11-12T12:49:05.169Z,102255.63
2022-11-12T12:51:55.579Z,102256.00
2022-11-12T12:54:40.937Z,102254.19
2022-11-12T12:57:31.104Z,102255.50
2022-11-12T13:00:32.993Z,102260.19
2022-11-12T13:03:46.274Z,102261.03
2022-11-12T13:06:53.702Z,102267.22
2022-11-12T13:09:39.259Z,102269.50
2022-11-12T13:13:03.007Z,102269.50
2022-11-12T13:15:55.138Z,102259.03
2022-11-12T13:18:40.663Z,102256.38
2022-11-12T13:21:25.924Z,102258.50
2022-11-12T13:24:11.428Z,102272.06
2022-11-12T13:27:00.300Z,102270.03
2022-11-12T13:29:47.821Z,102267.75
2022-11-12T13:32:36.463Z,102263.53
2022-11-12T13:35:26.883Z,102257.28
2022-11-12T13:38:17.146Z,102253.84
2022-11-12T13:41:12.015Z,102252.34
2022-11-12T13:43:57.805Z,102252.63
2022-11-12T13:46:44.750Z,102255.84
2022-11-12T13:49:30.525Z,102256.13
2022-11-12T13:52:16.275Z,102253.56
2022-11-12T13:55:03.650Z,102258.28
2022-11-12T13:57:54.467Z,102243.75
2022-11-12T14:00:39.933Z,102258.25
2022-11-12T14:03:31.394Z,102249.16
2022-11-12T14:06:22.415Z,102237.63
2022-11-12T14:09:16.682Z,102244.75
2022-11-12T14:12:31.239Z,102245.50
2022-11-12T14:15:35.894Z,102249.22
2022-11-12T14:18:39.163Z,102249.84
2022-11-12T14:21:24.561Z,102238.38
2022-11-12T14:24:12.558Z,102241.59
2022-11-12T14:26:57.749Z,102237.63
2022-11-12T14:29:43.974Z,102247.97
2022-11-12T14:32:36.844Z,102247.44
2022-11-12T14:35:25.663Z,102247.59
2022-11-12T14:38:26.916Z,102254.34
2022-11-12T14:41:24.208Z,102247.88
2022-11-12T14:44:18.334Z,102253.78
2022-11-12T14:47:04.289Z,102250.25
2022-11-12T14:49:50.355Z,102245.53
2022-11-12T14:52:41.985Z,102249.44
2022-11-12T14:55:33.508Z,102251.13
2022-11-12T14:58:21.241Z,102258.03
2022-11-12T15:04:44.466Z,102255.75
2022-11-12T15:07:57.215Z,102247.38
2022-11-12T15:10:44.963Z,102251.94
2022-11-12T15:27:42.004Z,102258.34
2022-11-12T15:30:32.314Z,102260.47
2022-11-12T15:33:22.666Z,102251.78
2022-11-12T15:36:18.218Z,102265.59
2022-11-12T15:39:04.971Z,102253.13
2022-11-12T15:42:12.218Z,102267.81
2022-11-12T15:45:00.965Z,102261.44
2022-11-12T15:47:46.377Z,102264.75
2022-11-12T15:50:31.833Z,102260.84
2022-11-12T15:53:17.417Z,102267.19
2022-11-12T15:56:03.750Z,102262.78
2022-11-12T15:58:49.178Z,102275.22
2022-11-12T16:01:35.186Z,102274.13
2022-11-12T16:04:20.868Z,102277.69
2022-11-12T16:07:07.185Z,102282.97
2022-11-12T16:09:52.850Z,102278.59
2022-11-12T16:12:37.918Z,102290.44
2022-11-12T16:15:25.646Z,102284.13
2022-11-12T16:18:12.304Z,102291.59
2022-11-12T16:20:58.072Z,102285.81
2022-11-12T16:23:43.417Z,102291.63
2022-11-12T16:26:30.867Z,102298.28
2022-11-12T16:29:16.627Z,102293.06
2022-11-12T16:32:02.786Z,102298.63
2022-11-12T16:34:48.144Z,102299.78
2022-11-12T16:37:33.766Z,102308.97
2022-11-12T16:40:21.999Z,102312.03
2022-11-12T16:43:07.493Z,102310.09
2022-11-12T16:45:52.753Z,102311.78
2022-11-12T16:48:38.348Z,102320.88
2022-11-12T16:51:24.132Z,102313.13
2022-11-12T16:54:09.569Z,102314.53
2022-11-12T16:56:54.647Z,102315.28
2022-11-12T16:59:40.038Z,102311.72
2022-11-12T17:02:25.386Z,102318.59
2022-11-12T17:05:20.375Z,102315.25
2022-11-12T17:08:06.102Z,102323.03
2022-11-12T17:10:51.566Z,102325.84
2022-11-12T17:13:38.820Z,102325.84
2022-11-12T17:16:24.374Z,102321.97
2022-11-12T17:19:10.651Z,102324.97
2022-11-12T17:21:55.934Z,102334.34
2022-11-12T17:24:41.429Z,102331.00
2022-11-12T17:27:27.517Z,102321.88
2022-11-12T17:30:13.508Z,102319.91
2022-11-12T17:33:00.100Z,102330.41
2022-11-12T17:35:45.395Z,102338.97
2022-11-12T17:38:30.923Z,102333.38
2022-11-12T17:41:16.281Z,102341.16
2022-11-12T17:44:02.466Z,102341.41
2022-11-12T17:46:48.500Z,102334.78
2022-11-12T17:49:33.965Z,102335.06
2022-11-12T17:52:19.366Z,102342.56
2022-11-12T17:55:05.160Z,102341.44
2022-11-12T17:57:50.569Z,102340.94
2022-11-12T18:00:36.647Z,102345.63
2022-11-12T18:03:22.013Z,102343.69
2022-11-12T18:06:12.517Z,102337.03
2022-11-12T18:09:04.613Z,102347.59
2022-11-12T18:11:54.804Z,102336.53
2022-11-12T18:14:40.233Z,102333.53
2022-11-12T18:17:25.698Z,102341.25
2022-11-12T18:20:11.424Z,102335.47
2022-11-12T18:22:56.916Z,102332.97
2022-11-12T18:25:42.395Z,102330.81
2022-11-12T18:28:27.917Z,102328.97
2022-11-12T18:31:13.554Z,102332.59
2022-11-12T18:33:58.919Z,102326.84
2022-11-12T18:36:44.357Z,102323.81
2022-11-12T18:39:30.895Z,102332.66
2022-11-12T18:42:16.224Z,102331.31
2022-11-12T18:45:01.777Z,102342.94
2022-11-12T18:47:47.211Z,102337.69
2022-11-12T18:50:32.613Z,102347.06
2022-11-12T18:53:18.178Z,102355.06
2022-11-12T18:56:12.585Z,102349.56
2022-11-12T18:58:57.722Z,102349.81
2022-11-12T19:01:43.145Z,102355.59
2022-11-12T19:04:29.144Z,102353.94
2022-11-12T19:07:14.899Z,102359.47
2022-11-12T19:10:00.170Z,102363.63
2022-11-12T19:12:45.513Z,102352.25
2022-11-12T19:15:34.151Z,102357.75
2022-11-12T19:18:19.927Z,102362.47
2022-11-12T19:21:16.902Z,102355.56
2022-11-12T19:24:02.700Z,102357.19
2022-11-12T19:26:47.813Z,102363.00
2022-11-12T19:29:33.218Z,102354.38
2022-11-12T19:32:18.586Z,102354.97
2022-11-12T19:35:04.194Z,102359.66
2022-11-12T19:37:49.446Z,102361.34
2022-11-12T19:40:34.708Z,102340.66
2022-11-12T19:43:21.867Z,102353.41
2022-11-12T19:46:07.924Z,102346.81
2022-11-12T19:48:52.996Z,102338.28
2022-11-12T19:51:38.494Z,102338.84
2022-11-12T19:54:24.067Z,102338.03
2022-11-12T19:57:09.617Z,102339.34
2022-11-12T19:59:55.160Z,102344.56
2022-11-12T20:02:40.682Z,102344.81
2022-11-12T20:05:26.126Z,102349.47
2022-11-12T20:08:11.417Z,102349.19
2022-11-12T20:10:57.150Z,102345.25
2022-11-12T20:13:42.559Z,102348.28
2022-11-12T20:16:27.887Z,102350.53
2022-11-12T20:19:13.305Z,102337.50
2022-11-12T20:21:58.649Z,102337.72
2022-11-12T20:24:44.167Z,102335.28
2022-11-12T20:27:29.732Z,102332.00
2022-11-12T20:30:15.004Z,102333.44
2022-11-12T20:33:00.464Z,102338.97
2022-11-12T20:35:45.746Z,102331.03
2022-11-12T20:38:31.331Z,102336.34
2022-11-12T20:41:22.237Z,102340.19
2022-11-12T20:44:07.265Z,102332.19
2022-11-12T20:46:52.629Z,102336.69
2022-11-12T20:49:38.086Z,102328.66
2022-11-12T20:52:23.335Z,102338.88
2022-11-12T20:55:09.226Z,102336.41
2022-11-12T20:57:54.655Z,102337.28
2022-11-12T21:00:40.789Z,102333.69
2022-11-12T21:03:25.911Z,102340.91
2022-11-12T21:06:16.996Z,102334.56
2022-11-12T21:09:02.920Z,102336.25
2022-11-12T21:11:48.077Z,102339.56
2022-11-12T21:14:33.491Z,102346.78
2022-11-12T21:17:19.828Z,102340.97
2022-11-12T21:20:05.751Z,102339.03
2022-11-12T21:22:51.026Z,102348.72
2022-11-12T21:25:38.219Z,102340.16
2022-11-12T21:28:24.065Z,102350.38
2022-11-12T21:31:12.950Z,102351.22
2022-11-12T21:34:00.995Z,102349.84
2022-11-12T21:36:46.275Z,102347.63
2022-11-12T21:39:31.558Z,102351.53
2022-11-12T21:42:16.947Z,102349.28
2022-11-12T21:45:02.453Z,102345.75
2022-11-12T21:47:47.793Z,102340.22
2022-11-12T21:50:33.291Z,102356.25
2022-11-12T21:53:18.987Z,102359.56
2022-11-12T21:56:06.687Z,102355.97
2022-11-12T21:58:54.214Z,102352.09
2022-11-12T22:01:40.669Z,102353.47
2022-11-12T22:04:26.066Z,102352.94
2022-11-12T22:07:11.567Z,102350.44
2022-11-12T22:09:57.289Z,102349.63
2022-11-12T22:13:04.892Z,102350.47
2022-11-12T22:15:50.685Z,102345.75
2022-11-12T22:18:37.016Z,102355.97
2022-11-12T22:21:24.045Z,102358.72
2022-11-12T22:24:11.047Z,102358.19
2022-11-12T22:26:58.882Z,102349.91
2022-11-12T22:29:49.246Z,102362.31
2022-11-12T22:32:34.870Z,102363.41
2022-11-12T22:35:20.183Z,102361.78
2022-11-12T22:38:05.724Z,102369.75
2022-11-12T22:40:50.706Z,102364.78
2022-11-12T22:43:39.370Z,102363.13
2022-11-12T22:46:30.443Z,102372.25
2022-11-12T22:49:15.409Z,102371.72
2022-11-12T22:52:00.826Z,102372.25
2022-11-12T22:54:46.109Z,102367.56
2022-11-12T22:57:32.229Z,102364.53
2022-11-12T23:00:20.041Z,102361.75
2022-11-12T23:03:05.689Z,102363.41
2022-11-12T23:05:57.796Z,102366.44
2022-11-12T23:08:43.392Z,102358.44
2022-11-12T23:11:29.281Z,102356.53
2022-11-12T23:14:14.633Z,102359.84
2022-11-12T23:17:01.313Z,102361.22
2022-11-12T23:19:46.495Z,102364.78
2022-11-12T23:22:31.978Z,102356.78
2022-11-12T23:25:17.453Z,102358.38
2022-11-12T23:28:02.590Z,102354.50
2022-11-12T23:30:52.880Z,102354.19
2022-11-12T23:33:38.638Z,102363.53
2022-11-12T23:36:26.054Z,102357.41
2022-11-12T23:39:11.786Z,102352.44
2022-11-12T23:41:57.114Z,102354.88
2022-11-12T23:44:42.567Z,102361.25
2022-11-12T23:47:28.248Z,102365.13
2022-11-12T23:50:13.938Z,102358.47
2022-11-12T23:52:59.397Z,102359.56
2022-11-12T23:55:44.838Z,102360.13
2022-11-12T23:58:31.443Z,102360.13
